Time;durP1;ratioP1;P1;durP2;ratioP2;P2;SDS_P1;SDS_P2;PMS_P1;PMS_P2;Temp;Humidity;BMP_temperature;BMP_pressure;BME280_temperature;BME280_humidity;BME280_pressure;Samples;Min_cycle;Max_cycle;Signal;HPM_P1;HPM_P2
2024/04/03 00:00:24;;;;;;;6.72;1.30;;;;;;;9.57;100.00;100477.16;5027750;28;20515;-76
2024/04/03 00:02:50;;;;;;;9.10;2.38;;;;;;;9.65;100.00;100484.16;5026753;28;20056;-76
2024/04/03 00:05:15;;;;;;;7.07;1.45;;;;;;;9.66;100.00;100477.97;5027293;28;20034;-75
2024/04/03 00:07:40;;;;;;;5.55;1.75;;;;;;;9.71;100.00;100481.72;5035107;28;20052;-75
2024/04/03 00:10:07;;;;;;;11.65;1.60;;;;;;;9.66;100.00;100473.63;5028608;28;20037;-76
2024/04/03 00:12:32;;;;;;;3.83;1.10;;;;;;;9.58;100.00;100475.38;5032546;28;20028;-76
2024/04/03 00:14:58;;;;;;;5.53;1.10;;;;;;;9.54;100.00;100475.69;5025812;28;20575;-75
2024/04/03 00:17:23;;;;;;;4.78;1.45;;;;;;;9.54;100.00;100475.69;5026534;28;20025;-75
2024/04/03 00:19:48;;;;;;;9.30;2.00;;;;;;;9.61;100.00;100469.91;5046316;28;20151;-75
2024/04/03 00:22:14;;;;;;;4.38;1.52;;;;;;;9.56;100.00;100467.75;5022616;28;20033;-75
2024/04/03 00:24:39;;;;;;;11.82;1.75;;;;;;;9.60;100.00;100466.47;5041155;28;20048;-75
2024/04/03 00:27:05;;;;;;;8.18;1.40;;;;;;;9.55;100.00;100469.56;5034077;28;20025;-75
2024/04/03 00:29:30;;;;;;;5.68;1.45;;;;;;;9.54;100.00;100469.69;5027181;28;20091;-76
2024/04/03 00:31:56;;;;;;;5.97;1.60;;;;;;;9.52;100.00;100463.88;5016436;28;20057;-75
2024/04/03 00:34:21;;;;;;;12.23;2.20;;;;;;;9.52;100.00;100462.09;5043644;28;20030;-76
2024/04/03 00:36:47;;;;;;;6.45;1.58;;;;;;;9.48;100.00;100473.72;5027444;28;20037;-75
2024/04/03 00:39:13;;;;;;;9.15;1.95;;;;;;;9.47;100.00;100461.75;5012118;28;20042;-75
2024/04/03 00:41:38;;;;;;;9.38;1.95;;;;;;;9.48;100.00;100463.38;5018958;28;20045;-75
2024/04/03 00:44:05;;;;;;;6.05;1.70;;;;;;;9.43;100.00;100457.03;5028213;28;20403;-74
2024/04/03 00:46:30;;;;;;;8.02;1.80;;;;;;;9.51;100.00;100460.50;5030055;28;20087;-75
2024/04/03 00:48:56;;;;;;;10.15;1.90;;;;;;;9.47;100.00;100455.75;5030255;28;20462;-75
2024/04/03 00:51:22;;;;;;;8.00;2.05;;;;;;;9.42;100.00;100456.25;5024989;28;20438;-75
2024/04/03 00:53:48;;;;;;;8.60;1.90;;;;;;;9.42;100.00;100452.81;5029769;28;20574;-75
2024/04/03 00:56:13;;;;;;;7.93;1.80;;;;;;;9.45;100.00;100455.13;5031310;28;20034;-75
2024/04/03 00:58:39;;;;;;;6.93;1.70;;;;;;;9.46;100.00;100456.75;5029101;28;20041;-75
2024/04/03 01:01:04;;;;;;;8.50;2.05;;;;;;;9.47;100.00;100445.41;5028210;28;20528;-74
2024/04/03 01:03:30;;;;;;;3.42;1.58;;;;;;;9.55;100.00;100448.84;5025645;28;20424;-75
2024/04/03 01:06:02;;;;;;;6.30;1.80;;;;;;;9.51;100.00;100459.66;5029074;28;20041;-75
2024/04/03 01:08:28;;;;;;;7.88;1.75;;;;;;;9.39;100.00;100446.19;5028989;28;20041;-75
2024/04/03 01:10:58;;;;;;;6.28;1.50;;;;;;;9.39;100.00;100441.03;5027951;28;20492;-75
2024/04/03 01:13:25;;;;;;;7.63;1.63;;;;;;;9.54;100.00;100433.47;5026976;28;20039;-75
2024/04/03 01:16:03;;;;;;;10.38;2.25;;;;;;;9.51;100.00;100436.34;5028566;28;20064;-75
2024/04/03 01:18:28;;;;;;;10.70;1.73;;;;;;;9.50;100.00;100427.00;5011886;28;20034;-75
2024/04/03 01:20:54;;;;;;;7.20;1.80;;;;;;;9.48;100.00;100428.94;5042862;28;20076;-74
2024/04/03 01:23:20;;;;;;;9.02;2.22;;;;;;;9.51;100.00;100426.84;5027504;28;20029;-76
2024/04/03 01:25:45;;;;;;;7.53;1.92;;;;;;;9.41;100.00;100420.16;5028877;28;20032;-75
2024/04/03 01:28:11;;;;;;;6.60;1.65;;;;;;;9.43;100.00;100423.41;5034686;28;20037;-74
2024/04/03 01:30:37;;;;;;;4.22;1.70;;;;;;;9.41;100.00;100431.31;5020892;28;20037;-75
2024/04/03 01:33:04;;;;;;;11.95;1.98;;;;;;;9.40;100.00;100418.53;5026939;28;20029;-76
2024/04/03 01:35:31;;;;;;;6.63;1.73;;;;;;;9.49;100.00;100413.25;5028596;28;20049;-75
2024/04/03 01:37:56;;;;;;;6.40;1.55;;;;;;;9.44;100.00;100415.50;5029818;28;20060;-75
2024/04/03 01:40:22;;;;;;;5.18;2.17;;;;;;;9.37;100.00;100413.69;5026232;28;20033;-75
2024/04/03 01:42:48;;;;;;;6.68;1.55;;;;;;;9.42;100.00;100422.59;5025245;28;20037;-75
2024/04/03 01:45:14;;;;;;;6.82;1.98;;;;;;;9.42;100.00;100416.59;5027948;28;20045;-75
2024/04/03 01:47:43;;;;;;;5.93;1.33;;;;;;;9.41;100.00;100402.84;5027141;28;20040;-75
2024/04/03 01:50:10;;;;;;;8.90;1.90;;;;;;;9.33;100.00;100390.69;5016384;28;20131;-75
2024/04/03 01:52:36;;;;;;;6.93;1.70;;;;;;;9.36;100.00;100389.56;5042084;28;20427;-74
2024/04/03 01:55:01;;;;;;;10.98;2.17;;;;;;;9.41;100.00;100400.25;5025483;28;20037;-76
2024/04/03 01:57:27;;;;;;;9.65;2.35;;;;;;;9.35;100.00;100390.56;5024511;28;20076;-75
2024/04/03 01:59:52;;;;;;;11.63;2.30;;;;;;;9.31;100.00;100384.88;5032591;28;20037;-75
2024/04/03 02:02:18;;;;;;;11.15;2.28;;;;;;;9.27;100.00;100375.81;5029425;28;21588;-75
2024/04/03 02:04:43;;;;;;;14.65;2.40;;;;;;;9.29;100.00;100378.25;5025779;28;20034;-75
2024/04/03 02:07:09;;;;;;;9.80;2.75;;;;;;;9.30;100.00;100369.50;5025971;28;20432;-75
2024/04/03 02:09:37;;;;;;;9.18;2.13;;;;;;;9.28;100.00;100363.69;5022517;28;20032;-74
2024/04/03 02:12:03;;;;;;;18.55;3.05;;;;;;;9.26;100.00;100363.84;5026595;28;20045;-75
2024/04/03 02:14:31;;;;;;;12.25;2.85;;;;;;;9.26;100.00;100360.44;5026722;28;20495;-75
2024/04/03 02:16:57;;;;;;;11.18;2.45;;;;;;;9.26;100.00;100363.03;5024177;28;22065;-75
2024/04/03 02:19:23;;;;;;;9.02;2.42;;;;;;;9.25;100.00;100351.06;5028026;28;20044;-75
2024/04/03 02:21:49;;;;;;;11.52;2.33;;;;;;;9.21;100.00;100340.25;5026916;28;20041;-76
2024/04/03 02:24:14;;;;;;;18.10;2.83;;;;;;;9.20;100.00;100346.38;5025208;28;20058;-75
2024/04/03 02:26:40;;;;;;;13.73;3.45;;;;;;;9.19;100.00;100331.81;5027020;28;20033;-75
2024/04/03 02:29:05;;;;;;;7.72;2.53;;;;;;;9.21;100.00;100334.22;5027582;28;20041;-75
2024/04/03 02:31:31;;;;;;;9.63;2.45;;;;;;;9.19;100.00;100331.00;5027385;28;20044;-75
2024/04/03 02:33:56;;;;;;;7.65;1.77;;;;;;;9.18;100.00;100327.59;5020239;28;20418;-74
2024/04/03 02:36:22;;;;;;;11.52;2.10;;;;;;;9.21;100.00;100322.13;5022858;28;20415;-75
2024/04/03 02:38:48;;;;;;;16.48;1.90;;;;;;;9.27;100.00;100311.13;5023202;28;20087;-75
2024/04/03 02:41:14;;;;;;;11.32;1.92;;;;;;;9.29;100.00;100310.97;5025773;28;20037;-75
2024/04/03 02:43:40;;;;;;;10.90;2.00;;;;;;;9.38;100.00;100312.63;5021666;28;20088;-75
2024/04/03 02:46:05;;;;;;;7.13;1.90;;;;;;;9.41;100.00;100314.88;5022037;28;20046;-75
2024/04/03 02:48:31;;;;;;;12.40;1.98;;;;;;;9.39;100.00;100314.22;5025408;28;20020;-75
2024/04/03 02:51:01;;;;;;;7.63;1.88;;;;;;;9.37;100.00;100310.19;5027823;28;20056;-75
2024/04/03 02:53:27;;;;;;;5.97;1.75;;;;;;;9.30;100.00;100304.81;5027353;28;20629;-75
2024/04/03 02:55:52;;;;;;;5.35;1.55;;;;;;;9.36;100.00;100301.59;5009121;28;20030;-75
2024/04/03 02:58:18;;;;;;;12.35;2.00;;;;;;;9.27;100.00;100298.19;5027841;28;20204;-76
2024/04/03 03:00:43;;;;;;;7.63;1.70;;;;;;;9.33;100.00;100294.16;5020039;28;20057;-75
2024/04/03 03:03:09;;;;;;;9.82;1.80;;;;;;;9.24;100.00;100293.34;5021475;28;20029;-75
2024/04/03 03:05:35;;;;;;;15.07;2.10;;;;;;;9.24;100.00;100295.91;5032275;28;20049;-75
2024/04/03 03:08:02;;;;;;;12.65;2.40;;;;;;;9.30;100.00;100290.09;5011997;28;20030;-75
2024/04/03 03:10:28;;;;;;;9.45;2.20;;;;;;;9.29;100.00;100290.28;5030092;28;20047;-75
2024/04/03 03:12:58;;;;;;;5.65;1.80;;;;;;;9.21;100.00;100279.91;5029581;28;20033;-75
2024/04/03 03:15:24;;;;;;;7.97;1.85;;;;;;;9.14;100.00;100283.13;5019095;28;20527;-75
2024/04/03 03:17:50;;;;;;;8.48;1.67;;;;;;;9.13;100.00;100276.34;5021428;28;20034;-76
2024/04/03 03:20:15;;;;;;;6.72;2.13;;;;;;;9.16;100.00;100270.06;5030143;28;20041;-75
2024/04/03 03:22:40;;;;;;;6.88;1.73;;;;;;;9.25;100.00;100260.50;5026090;28;20025;-75
2024/04/03 03:25:06;;;;;;;8.57;2.90;;;;;;;9.21;100.00;100257.44;5025026;28;20048;-75
2024/04/03 03:27:32;;;;;;;5.88;2.33;;;;;;;9.20;100.00;100258.41;5025262;28;20029;-74
2024/04/03 03:29:57;;;;;;;8.48;2.00;;;;;;;9.16;100.00;100252.75;5024308;28;20053;-75
2024/04/03 03:32:23;;;;;;;12.75;2.05;;;;;;;9.20;100.00;100265.38;5030354;28;20029;-75
2024/04/03 03:34:48;;;;;;;13.82;2.10;;;;;;;9.17;100.00;100269.06;5040276;28;20041;-76
2024/04/03 03:37:13;;;;;;;11.48;2.67;;;;;;;9.06;100.00;100262.44;5031962;28;20121;-76
2024/04/03 03:39:41;;;;;;;8.27;2.40;;;;;;;9.09;100.00;100266.47;5006499;28;20037;-75
2024/04/03 03:42:07;;;;;;;6.88;1.95;;;;;;;9.05;100.00;100260.00;5018903;28;20025;-75
2024/04/03 03:44:33;;;;;;;8.40;2.15;;;;;;;8.99;100.00;100263.25;5028506;28;20057;-75
2024/04/03 03:46:58;;;;;;;10.55;1.83;;;;;;;9.01;100.00;100263.88;5030792;28;20041;-75
2024/04/03 03:54:55;;;;;;;10.10;1.83;;;;;;;9.00;100.00;100255.28;5028023;28;20178;-75
2024/04/03 03:57:21;;;;;;;10.18;2.20;;;;;;;9.04;100.00;100251.44;5021149;28;20048;-75
2024/04/03 03:59:46;;;;;;;16.55;2.20;;;;;;;9.17;100.00;100258.72;5022713;28;20038;-75
2024/04/03 04:02:12;;;;;;;8.07;2.13;;;;;;;9.09;100.00;100251.75;5027055;28;20032;-75
2024/04/03 04:04:37;;;;;;;10.85;2.17;;;;;;;9.18;100.00;100251.78;5028317;28;20041;-75
2024/04/03 04:07:02;;;;;;;12.30;2.40;;;;;;;9.19;100.00;100243.03;5011698;28;20028;-75
2024/04/03 04:09:28;;;;;;;12.23;1.95;;;;;;;9.18;100.00;100238.84;5023167;28;20095;-75
2024/04/03 04:11:53;;;;;;;12.57;2.20;;;;;;;9.12;100.00;100235.94;5037414;28;20048;-75
2024/04/03 04:14:19;;;;;;;9.60;2.00;;;;;;;9.09;100.00;100235.44;5019335;28;20037;-75
2024/04/03 04:16:44;;;;;;;9.98;2.20;;;;;;;9.07;100.00;100227.84;5023365;28;20034;-75
2024/04/03 04:19:10;;;;;;;10.75;2.45;;;;;;;9.08;100.00;100219.13;5024341;28;20814;-75
2024/04/03 04:21:36;;;;;;;14.65;2.60;;;;;;;9.06;100.00;100215.88;5020983;28;20413;-75
2024/04/03 04:24:03;;;;;;;16.00;3.03;;;;;;;9.11;100.00;100213.59;5024754;28;20041;-75
2024/04/03 04:26:30;;;;;;;16.17;3.15;;;;;;;9.11;100.00;100217.97;5024100;28;20038;-75
2024/04/03 04:28:56;;;;;;;16.45;3.42;;;;;;;9.00;100.00;100213.13;5022259;28;20029;-75
2024/04/03 04:31:21;;;;;;;9.73;2.63;;;;;;;8.93;100.00;100218.94;5006780;28;20515;-75
2024/04/03 04:33:47;;;;;;;13.73;3.25;;;;;;;8.95;100.00;100217.00;5028074;28;20397;-75
2024/04/03 04:36:12;;;;;;;8.75;2.92;;;;;;;9.00;100.00;100208.75;5028680;28;20030;-75
2024/04/03 04:38:38;;;;;;;14.75;3.20;;;;;;;8.89;100.00;100206.47;5024793;28;20048;-75
2024/04/03 04:41:03;;;;;;;16.42;2.65;;;;;;;8.92;100.00;100201.78;5025510;28;20041;-76
2024/04/03 04:43:30;;;;;;;18.67;3.10;;;;;;;8.88;100.00;100197.09;5031643;28;20112;-75
2024/04/03 04:45:57;;;;;;;11.25;2.85;;;;;;;8.92;100.00;100198.41;5034653;28;20119;-75
2024/04/03 04:48:24;;;;;;;8.13;2.55;;;;;;;8.93;100.00;100210.38;5031415;28;20040;-75
2024/04/03 04:50:51;;;;;;;11.77;3.22;;;;;;;8.97;100.00;100201.31;5007566;28;20471;-75
2024/04/03 04:53:17;;;;;;;12.13;2.53;;;;;;;8.94;100.00;100206.81;5028213;28;20099;-76
2024/04/03 04:56:04;;;;;;;17.08;3.00;;;;;;;8.89;100.00;100206.47;5032177;28;20447;-75
2024/04/03 04:58:29;;;;;;;12.57;3.22;;;;;;;8.93;100.00;100200.03;5018568;28;20040;-75
2024/04/03 05:01:08;;;;;;;8.38;2.58;;;;;;;8.91;100.00;100207.13;5024689;28;20033;-75
2024/04/03 05:03:35;;;;;;;9.93;3.15;;;;;;;8.99;100.00;100204.56;5021107;28;20033;-75
2024/04/03 05:06:01;;;;;;;10.75;3.25;;;;;;;8.90;100.00;100201.13;5031657;28;20046;-75
2024/04/03 05:08:28;;;;;;;10.70;2.70;;;;;;;8.79;100.00;100204.03;5031370;28;20104;-74
2024/04/03 05:10:56;;;;;;;11.48;3.15;;;;;;;8.75;100.00;100211.28;5029053;28;20052;-75
2024/04/03 05:13:23;;;;;;;11.82;3.22;;;;;;;8.75;100.00;100213.88;5030458;28;20071;-74
2024/04/03 05:15:49;;;;;;;9.48;2.70;;;;;;;8.72;100.00;100213.38;5031371;28;20037;-75
2024/04/03 05:18:14;;;;;;;7.70;2.45;;;;;;;8.70;100.00;100210.97;5020899;28;20037;-76
2024/04/03 05:20:41;;;;;;;8.55;3.00;;;;;;;8.70;100.00;100208.41;5023480;28;20040;-76
2024/04/03 05:23:06;;;;;;;23.15;4.75;;;;;;;8.84;100.00;100203.56;5020131;28;20040;-74
2024/04/03 05:25:32;;;;;;;13.23;3.90;;;;;;;8.89;100.00;100194.38;5024047;28;20061;-75
2024/04/03 05:27:57;;;;;;;12.65;3.85;;;;;;;8.83;100.00;100201.94;5029791;28;20060;-74
2024/04/03 05:30:24;;;;;;;15.70;6.28;;;;;;;8.79;100.00;100203.22;5038992;28;20036;-75
2024/04/03 05:32:50;;;;;;;34.20;14.73;;;;;;;8.71;100.00;100193.69;5026785;28;20043;-75
2024/04/03 05:35:16;;;;;;;13.60;5.00;;;;;;;8.73;100.00;100192.56;5024392;28;20029;-75
2024/04/03 05:37:44;;;;;;;14.43;4.20;;;;;;;8.80;100.00;100194.50;5026170;28;20592;-75
2024/04/03 05:40:10;;;;;;;15.05;3.97;;;;;;;8.84;100.00;100186.28;5028077;28;20050;-76
2024/04/03 05:42:35;;;;;;;11.52;3.38;;;;;;;8.80;100.00;100189.31;5026750;28;20040;-75
2024/04/03 05:45:00;;;;;;;11.95;3.88;;;;;;;8.83;100.00;100184.66;5041659;28;20557;-75
2024/04/03 05:47:26;;;;;;;13.20;3.60;;;;;;;8.87;100.00;100188.56;5029393;28;20044;-75
2024/04/03 05:49:55;;;;;;;11.73;3.45;;;;;;;8.91;100.00;100186.44;5027088;28;20042;-75
2024/04/03 05:52:23;;;;;;;10.68;3.63;;;;;;;8.95;100.00;100175.63;5025216;28;20492;-76
2024/04/03 05:54:49;;;;;;;10.18;3.75;;;;;;;8.98;100.00;100176.28;5027561;28;20087;-75
2024/04/03 05:57:18;;;;;;;10.27;3.70;;;;;;;8.89;100.00;100178.03;5030196;28;20033;-75
2024/04/03 05:59:45;;;;;;;11.25;3.22;;;;;;;8.93;100.00;100176.75;5034286;28;20814;-75
2024/04/03 06:02:11;;;;;;;9.43;2.90;;;;;;;9.05;100.00;100183.22;5014475;28;20029;-74
2024/04/03 06:04:37;;;;;;;16.73;3.45;;;;;;;9.04;100.00;100173.03;5023304;28;20061;-75
2024/04/03 06:07:03;;;;;;;10.98;2.90;;;;;;;9.01;100.00;100178.53;5033108;28;20485;-75
2024/04/03 06:09:30;;;;;;;10.57;3.28;;;;;;;9.13;100.00;100178.03;5028414;28;20033;-75
2024/04/03 06:11:56;;;;;;;14.35;3.15;;;;;;;9.09;100.00;100168.19;5008385;28;20125;-75
2024/04/03 06:14:21;;;;;;;11.35;3.20;;;;;;;9.10;100.00;100168.03;5025873;28;20104;-75
2024/04/03 06:16:47;;;;;;;10.68;2.47;;;;;;;9.22;100.00;100165.94;5032347;28;20033;-75
2024/04/03 06:19:13;;;;;;;13.52;2.83;;;;;;;9.07;100.00;100170.13;5009178;28;20053;-75
2024/04/03 06:21:39;;;;;;;11.85;3.00;;;;;;;9.15;100.00;100172.72;5031089;28;20032;-74
2024/04/03 06:24:06;;;;;;;10.27;2.92;;;;;;;9.12;100.00;100173.06;5020193;28;20515;-75
2024/04/03 06:26:35;;;;;;;14.38;3.40;;;;;;;9.18;100.00;100167.22;5029805;28;20037;-75
2024/04/03 06:29:01;;;;;;;14.77;2.50;;;;;;;9.18;100.00;100172.41;5026946;28;20125;-75
2024/04/03 06:31:27;;;;;;;12.63;3.55;;;;;;;9.14;100.00;100163.34;5023646;28;20051;-75
2024/04/03 06:33:55;;;;;;;21.45;3.25;;;;;;;9.18;100.00;100161.25;5026602;28;21634;-75
2024/04/03 06:36:21;;;;;;;16.33;2.67;;;;;;;9.10;100.00;100156.88;5022434;28;20068;-74
2024/04/03 06:38:47;;;;;;;14.45;2.58;;;;;;;9.12;100.00;100150.56;5025417;28;20037;-75
2024/04/03 06:41:12;;;;;;;4.25;2.10;;;;;;;9.21;100.00;100150.56;5032307;28;20034;-74
2024/04/03 06:43:37;;;;;;;13.10;3.45;;;;;;;9.22;100.00;100149.59;5028441;28;20025;-75
2024/04/03 06:46:03;;;;;;;14.43;2.80;;;;;;;9.23;100.00;100148.63;5024591;28;20504;-75
2024/04/03 06:48:29;;;;;;;8.50;2.88;;;;;;;9.32;100.00;100145.88;5026814;28;20054;-74
2024/04/03 06:50:54;;;;;;;6.60;2.47;;;;;;;9.35;100.00;100142.94;5021706;28;20037;-74
2024/04/03 06:53:20;;;;;;;10.15;2.10;;;;;;;9.32;100.00;100145.06;5011520;28;20681;-77
2024/04/03 06:55:55;;;;;;;12.65;3.10;;;;;;;9.29;100.00;100143.63;5027347;28;20052;-75
2024/04/03 06:58:21;;;;;;;11.93;2.53;;;;;;;9.45;100.00;100142.78;5026334;28;20488;-75
2024/04/03 07:00:47;;;;;;;12.25;2.70;;;;;;;9.45;100.00;100137.59;5036114;28;20061;-74
2024/04/03 07:03:12;;;;;;;10.88;2.25;;;;;;;9.43;100.00;100138.75;5027918;28;20071;-75
2024/04/03 07:05:39;;;;;;;9.32;2.05;;;;;;;9.50;100.00;100144.88;5023152;28;20040;-74
2024/04/03 07:08:06;;;;;;;6.70;2.05;;;;;;;9.54;100.00;100141.00;5022774;28;20476;-74
2024/04/03 07:10:31;;;;;;;10.07;2.35;;;;;;;9.66;100.00;100141.44;5008159;28;20065;-75
2024/04/03 07:13:00;;;;;;;12.60;3.17;;;;;;;9.77;100.00;100140.28;5020386;28;20393;-75
2024/04/03 07:15:26;;;;;;;10.30;2.10;;;;;;;9.75;100.00;100143.84;5029157;28;20109;-74
2024/04/03 07:17:52;;;;;;;8.52;2.25;;;;;;;9.81;100.00;100138.97;5009820;28;20037;-74
2024/04/03 07:20:17;;;;;;;7.63;2.08;;;;;;;9.77;100.00;100138.50;5030876;28;20034;-74
2024/04/03 07:22:43;;;;;;;15.00;1.98;;;;;;;9.74;100.00;100129.28;5029564;28;20033;-75
2024/04/03 07:25:11;;;;;;;4.57;1.80;;;;;;;9.75;100.00;100138.66;5025773;28;20140;-75
2024/04/03 07:27:44;;;;;;;10.50;2.00;;;;;;;9.85;100.00;100130.72;5024764;28;20032;-76
2024/04/03 07:30:10;;;;;;;16.10;2.75;;;;;;;9.90;100.00;100131.00;5026325;28;20493;-75
2024/04/03 07:32:35;;;;;;;14.48;2.72;;;;;;;9.92;100.00;100130.84;5019413;28;20040;-75
2024/04/03 07:35:01;;;;;;;9.52;2.13;;;;;;;9.89;100.00;100134.59;5027617;28;20049;-74
2024/04/03 07:37:26;;;;;;;9.63;1.92;;;;;;;9.97;100.00;100130.34;5025229;28;20036;-75
2024/04/03 07:39:52;;;;;;;6.18;1.75;;;;;;;10.00;100.00;100132.59;5024943;28;20044;-75
2024/04/03 07:42:17;;;;;;;11.93;2.15;;;;;;;10.02;100.00;100128.03;5024876;28;20107;-75
2024/04/03 07:44:43;;;;;;;12.63;1.90;;;;;;;10.08;100.00;100129.97;5031797;28;20037;-75
2024/04/03 07:47:09;;;;;;;11.45;2.13;;;;;;;10.11;100.00;100127.88;5037363;28;20484;-75
2024/04/03 07:49:34;;;;;;;9.70;2.25;;;;;;;10.12;100.00;100126.06;5030811;28;20033;-74
2024/04/03 07:52:00;;;;;;;11.25;1.70;;;;;;;10.12;100.00;100124.28;5032954;28;20041;-75
2024/04/03 07:54:25;;;;;;;5.38;1.85;;;;;;;10.18;100.00;100127.19;5024724;28;20033;-75
2024/04/03 07:56:51;;;;;;;4.13;1.52;;;;;;;10.21;100.00;100122.47;5025265;28;20079;-76
2024/04/03 07:59:16;;;;;;;7.55;1.73;;;;;;;10.26;100.00;100120.16;5026319;28;20855;-75
2024/04/03 08:01:42;;;;;;;10.23;2.08;;;;;;;10.34;100.00;100121.94;5027093;28;20057;-75
2024/04/03 08:04:09;;;;;;;12.55;2.33;;;;;;;10.37;100.00;100126.78;5027841;28;20493;-75
2024/04/03 08:06:34;;;;;;;10.77;1.80;;;;;;;10.39;100.00;100118.84;5037347;28;20053;-75
2024/04/03 08:09:00;;;;;;;10.70;1.80;;;;;;;10.43;100.00;100123.50;5040774;28;20037;-75
2024/04/03 08:11:25;;;;;;;7.18;1.65;;;;;;;10.45;100.00;100123.31;5025814;28;20036;-75
2024/04/03 08:13:52;;;;;;;8.05;2.40;;;;;;;10.50;100.00;100110.66;5034082;28;20030;-75
2024/04/03 08:16:17;;;;;;;10.52;1.95;;;;;;;10.49;100.00;100109.03;5027500;28;20037;-75
2024/04/03 08:18:44;;;;;;;5.13;2.00;;;;;;;10.55;100.00;100108.38;5013728;28;20412;-75
2024/04/03 08:21:10;;;;;;;6.32;1.63;;;;;;;10.44;100.00;100112.16;5030245;28;20133;-74
2024/04/03 08:23:36;;;;;;;8.50;1.77;;;;;;;10.47;100.00;100117.00;5020518;28;20083;-74
2024/04/03 08:26:07;;;;;;;5.65;1.65;;;;;;;10.54;100.00;100119.72;5021770;28;20041;-75
2024/04/03 08:28:35;;;;;;;7.53;1.80;;;;;;;10.54;100.00;100124.88;5034110;28;20040;-75
2024/04/03 08:31:01;;;;;;;7.43;1.73;;;;;;;10.52;100.00;100125.06;5034249;28;20046;-74
2024/04/03 08:33:27;;;;;;;7.82;1.90;;;;;;;10.52;100.00;100117.28;5034586;28;20040;-75
2024/04/03 08:36:02;;;;;;;6.63;1.52;;;;;;;10.62;100.00;100121.44;5027555;28;20029;-75
2024/04/03 08:38:28;;;;;;;6.28;1.63;;;;;;;10.65;100.00;100123.69;5026640;28;20041;-74
2024/04/03 08:40:55;;;;;;;6.90;2.15;;;;;;;10.60;100.00;100124.19;5028470;28;20057;-75
2024/04/03 08:43:22;;;;;;;14.15;2.78;;;;;;;10.63;100.00;100123.06;5029107;28;20065;-75
2024/04/03 08:45:48;;;;;;;5.93;2.17;;;;;;;10.58;100.00;100118.38;5022975;28;20120;-75
2024/04/03 08:48:19;;;;;;;6.75;2.22;;;;;;;10.60;100.00;100119.00;5015353;28;20028;-75
2024/04/03 08:50:46;;;;;;;10.57;2.00;;;;;;;10.58;100.00;100126.16;5024972;28;20060;-75
2024/04/03 08:53:17;;;;;;;6.80;1.30;;;;;;;10.48;100.00;100125.59;5035632;28;20039;-75
2024/04/03 08:55:45;;;;;;;8.75;1.80;;;;;;;10.51;100.00;100123.47;5021549;28;20076;-75
2024/04/03 08:58:11;;;;;;;10.75;2.30;;;;;;;10.64;100.00;100128.09;5034304;28;20049;-76
2024/04/03 09:00:37;;;;;;;7.78;1.90;;;;;;;10.59;100.00;100124.41;5025684;28;20088;-75
2024/04/03 09:03:03;;;;;;;4.65;1.40;;;;;;;10.57;100.00;100136.69;5027473;28;20484;-75
2024/04/03 09:05:28;;;;;;;8.55;2.47;;;;;;;10.71;100.00;100128.19;5018629;28;20038;-75
2024/04/03 09:08:01;;;;;;;6.47;1.58;;;;;;;10.56;100.00;100119.53;5024542;28;20056;-75
2024/04/03 09:10:47;;;;;;;6.90;1.67;;;;;;;10.56;100.00;100117.75;5025971;28;20561;-75
2024/04/03 09:13:13;;;;;;;9.80;1.85;;;;;;;10.59;100.00;100124.41;5028735;28;20037;-75
2024/04/03 09:15:39;;;;;;;6.38;1.83;;;;;;;10.59;100.00;100121.81;5027445;28;20046;-75
2024/04/03 09:18:09;;;;;;;8.55;1.58;;;;;;;10.53;100.00;100118.09;5026678;28;20043;-75
2024/04/03 09:20:38;;;;;;;7.53;1.88;;;;;;;10.55;100.00;100118.75;5025515;28;20029;-75
2024/04/03 09:23:06;;;;;;;7.45;1.42;;;;;;;10.68;100.00;100116.38;5029854;28;20099;-75
2024/04/03 09:25:32;;;;;;;6.72;1.50;;;;;;;10.59;100.00;100114.03;5030806;28;20045;-75
2024/04/03 09:28:06;;;;;;;7.15;1.40;;;;;;;10.62;100.00;100117.03;5014182;28;20037;-75
2024/04/03 09:30:33;;;;;;;8.63;1.90;;;;;;;10.71;100.00;100116.00;5023545;28;20484;-75
2024/04/03 09:33:03;;;;;;;6.07;1.70;;;;;;;10.67;100.00;100109.56;5024101;28;20049;-75
2024/04/03 09:35:40;;;;;;;9.43;2.05;;;;;;;10.70;100.00;100114.41;5021778;28;20038;-75
2024/04/03 09:38:06;;;;;;;8.00;2.58;;;;;;;10.79;100.00;100111.75;5020361;28;20587;-74
2024/04/03 09:40:34;;;;;;;8.15;1.52;;;;;;;10.86;100.00;100110.88;5026729;28;20139;-76
2024/04/03 09:43:05;;;;;;;10.55;1.70;;;;;;;10.96;100.00;100109.84;5026160;28;20037;-75
2024/04/03 09:45:32;;;;;;;8.27;1.52;;;;;;;10.95;100.00;100103.84;5027463;28;20033;-75
2024/04/03 09:48:05;;;;;;;4.32;1.60;;;;;;;10.95;100.00;100116.81;5026993;28;20036;-75
2024/04/03 09:50:37;;;;;;;6.18;1.88;;;;;;;10.90;100.00;100109.53;5038466;28;20140;-74
2024/04/03 09:53:05;;;;;;;12.00;1.60;;;;;;;10.97;100.00;100107.06;5026817;28;20022;-76
2024/04/03 09:55:32;;;;;;;2.08;0.90;;;;;;;10.95;100.00;100097.88;5022152;28;20041;-75
2024/04/03 09:58:01;;;;;;;4.28;1.45;;;;;;;11.06;100.00;100100.03;5028256;28;20055;-75
2024/04/03 10:00:27;;;;;;;7.30;1.33;;;;;;;11.21;100.00;100103.47;5024977;28;20041;-75
2024/04/03 10:02:53;;;;;;;5.25;1.10;;;;;;;11.17;100.00;100096.19;5030221;28;20132;-76
2024/04/03 10:05:40;;;;;;;3.13;0.85;;;;;;;11.21;100.00;100097.47;5023378;28;20044;-74
2024/04/03 10:08:10;;;;;;;5.50;1.10;;;;;;;11.23;100.00;100096.31;5033027;28;20033;-75
2024/04/03 10:10:45;;;;;;;3.65;0.90;;;;;;;11.21;100.00;100100.88;5024872;28;20439;-74
2024/04/03 10:13:29;;;;;;;5.78;0.90;;;;;;;11.20;100.00;100096.66;5028263;28;20057;-76
2024/04/03 10:16:05;;;;;;;3.63;0.70;;;;;;;11.31;100.00;100100.59;5028469;28;20082;-76
2024/04/03 10:18:35;;;;;;;2.22;0.60;;;;;;;11.33;100.00;100090.03;5027959;28;20072;-76
2024/04/03 10:21:01;;;;;;;3.50;0.80;;;;;;;11.41;100.00;100101.13;5024092;28;20096;-75
2024/04/03 10:23:27;;;;;;;1.48;0.40;;;;;;;11.29;100.00;100094.78;5038552;28;20048;-75
2024/04/03 10:25:52;;;;;;;1.38;0.60;;;;;;;11.40;100.00;100088.34;5007626;28;20133;-75
2024/04/03 10:28:18;;;;;;;6.43;1.40;;;;;;;11.59;100.00;100085.22;5029158;28;20036;-75
2024/04/03 10:30:47;;;;;;;2.97;0.60;;;;;;;11.76;100.00;100085.84;5023459;28;20038;-75
2024/04/03 10:33:12;;;;;;;0.40;0.30;;;;;;;11.88;100.00;100086.16;5026128;28;20116;-75
2024/04/03 10:35:38;;;;;;;0.85;0.50;;;;;;;12.00;100.00;100083.97;5027673;28;20420;-75
2024/04/03 10:38:04;;;;;;;1.35;0.40;;;;;;;11.93;100.00;100089.06;5025664;28;20069;-74
2024/04/03 10:40:30;;;;;;;0.50;0.30;;;;;;;11.99;100.00;100082.34;5015356;28;20148;-75
2024/04/03 10:42:55;;;;;;;0.82;0.30;;;;;;;11.94;100.00;100085.50;5027383;28;20128;-75
2024/04/03 10:45:21;;;;;;;0.80;0.50;;;;;;;11.90;100.00;100084.22;5027850;28;20036;-75
2024/04/03 10:47:48;;;;;;;2.42;0.55;;;;;;;11.83;100.00;100085.94;5026079;28;20444;-75
2024/04/03 10:50:18;;;;;;;2.17;0.80;;;;;;;11.85;100.00;100083.94;5027353;28;20042;-75
2024/04/03 10:52:44;;;;;;;0.98;0.50;;;;;;;11.95;100.00;100087.09;5009508;28;20037;-75
2024/04/03 10:55:19;;;;;;;2.22;0.40;;;;;;;11.94;100.00;100087.25;5025767;28;20124;-75
2024/04/03 10:57:47;;;;;;;1.75;0.55;;;;;;;11.91;100.00;100083.25;5027138;28;20037;-75
2024/04/03 11:00:14;;;;;;;0.73;0.40;;;;;;;11.96;100.00;100090.47;5021116;28;20033;-75
2024/04/03 11:02:45;;;;;;;1.08;0.40;;;;;;;11.95;98.61;100088.88;5019301;28;20033;-75
2024/04/03 11:05:12;;;;;;;2.15;0.70;;;;;;;11.88;98.66;100084.41;5027835;28;20114;-75
2024/04/03 11:07:37;;;;;;;1.40;0.60;;;;;;;12.01;98.58;100082.94;5030622;28;20039;-75
2024/04/03 11:10:08;;;;;;;1.77;0.43;;;;;;;12.09;99.31;100077.63;5026477;28;20037;-75
2024/04/03 11:12:34;;;;;;;1.67;0.35;;;;;;;12.17;97.29;100087.16;5021633;28;20088;-75
2024/04/03 11:15:01;;;;;;;0.45;0.20;;;;;;;12.27;97.34;100091.03;5008956;28;20456;-75
2024/04/03 11:17:26;;;;;;;0.63;0.40;;;;;;;12.22;95.97;100089.97;5027807;28;20026;-75
2024/04/03 11:19:52;;;;;;;0.45;0.35;;;;;;;12.22;97.71;100090.81;5028217;28;20037;-75
2024/04/03 11:22:17;;;;;;;2.97;0.50;;;;;;;12.39;96.78;100086.16;5030550;28;20033;-75